createdAt,value
2023-04-04T00:00:53.367Z,-0.94
2023-04-04T00:03:20.792Z,-1.07
2023-04-04T00:05:48.173Z,-1.05
2023-04-04T00:08:15.947Z,-1.07
2023-04-04T00:10:45.873Z,-1.09
2023-04-04T00:13:13.516Z,-1.12
2023-04-04T00:15:41.044Z,-1.12
2023-04-04T00:18:08.578Z,-1.11
2023-04-04T00:20:37.737Z,-1.16
2023-04-04T00:23:05.107Z,-1.19
2023-04-04T00:25:32.441Z,-1.18
2023-04-04T00:28:01.331Z,-1.22
2023-04-04T00:30:30.232Z,-1.34
2023-04-04T00:32:58.586Z,-1.29
2023-04-04T00:35:27.148Z,-1.30
2023-04-04T00:37:56.652Z,-1.29
2023-04-04T00:40:24.993Z,-1.29
2023-04-04T00:42:53.695Z,-1.33
2023-04-04T00:45:23.277Z,-1.39
2023-04-04T00:47:52.656Z,-1.44
2023-04-04T00:50:22.098Z,-1.43
2023-04-04T00:52:50.634Z,-1.45
2023-04-04T00:55:18.168Z,-1.41
2023-04-04T00:57:46.065Z,-1.43
2023-04-04T01:02:48.930Z,-1.49
2023-04-04T01:05:16.369Z,-1.49
2023-04-04T01:07:44.811Z,-1.50
2023-04-04T01:10:12.921Z,-1.55
2023-04-04T01:12:42.696Z,-1.50
2023-04-04T01:15:10.589Z,-1.45
2023-04-04T01:17:38.303Z,-1.46
2023-04-04T01:20:11.875Z,-1.46
2023-04-04T01:22:40.818Z,-1.46
2023-04-04T01:25:11.948Z,-1.43
2023-04-04T01:27:39.573Z,-1.34
2023-04-04T01:30:08.402Z,-1.37
2023-04-04T01:32:46.420Z,-1.35
2023-04-04T01:35:17.129Z,-1.31
2023-04-04T01:38:19.228Z,-1.26
2023-04-04T01:40:49.994Z,-1.22
2023-04-04T01:43:23.892Z,-1.17
2023-04-04T01:45:51.530Z,-1.18
2023-04-04T01:48:24.914Z,-1.16
2023-04-04T01:50:54.518Z,-1.18
2023-04-04T01:53:22.346Z,-1.21
2023-04-04T01:55:50.223Z,-1.11
2023-04-04T01:58:17.829Z,-1.09
2023-04-04T02:00:45.180Z,-1.11
2023-04-04T02:03:18.404Z,-1.07
2023-04-04T02:05:46.688Z,-1.04
2023-04-04T02:08:15.538Z,-1.15
2023-04-04T02:10:42.811Z,-1.11
2023-04-04T02:13:11.486Z,-1.09
2023-04-04T02:15:38.772Z,-1.08
2023-04-04T02:18:08.360Z,-1.06
2023-04-04T02:20:38.186Z,-1.09
2023-04-04T02:23:05.795Z,-1.13
2023-04-04T02:25:33.056Z,-1.11
2023-04-04T02:28:01.690Z,-1.14
2023-04-04T02:30:29.021Z,-1.06
2023-04-04T02:33:00.140Z,-1.07
2023-04-04T02:35:27.729Z,-1.14
2023-04-04T02:37:55.067Z,-1.12
2023-04-04T02:40:22.535Z,-1.15
2023-04-04T02:42:49.984Z,-1.26
2023-04-04T02:45:17.950Z,-1.21
2023-04-04T02:47:51.086Z,-1.19
2023-04-04T02:50:19.751Z,-1.24
2023-04-04T02:52:55.276Z,-1.29
2023-04-04T02:55:22.565Z,-1.29
2023-04-04T02:57:54.234Z,-1.37
2023-04-04T03:00:22.032Z,-1.48
2023-04-04T03:02:56.251Z,-1.45
2023-04-04T03:05:27.910Z,-1.41
2023-04-04T03:07:59.153Z,-1.41
2023-04-04T03:10:32.009Z,-1.38
2023-04-04T03:13:01.344Z,-1.38
2023-04-04T03:15:30.752Z,-1.39
2023-04-04T03:17:59.343Z,-1.38
2023-04-04T03:20:27.439Z,-1.40
2023-04-04T03:22:54.815Z,-1.40
2023-04-04T03:25:22.312Z,-1.44
2023-04-04T03:27:50.729Z,-1.59
2023-04-04T03:30:18.294Z,-1.62
2023-04-04T03:32:46.636Z,-1.69
2023-04-04T03:35:15.154Z,-1.74
2023-04-04T03:37:43.156Z,-1.77
2023-04-04T03:40:13.000Z,-1.80
2023-04-04T03:42:40.649Z,-1.90
2023-04-04T03:45:08.792Z,-1.93
2023-04-04T03:47:35.937Z,-1.96
2023-04-04T03:50:03.672Z,-2.00
2023-04-04T03:52:32.215Z,-2.04
2023-04-04T03:55:01.437Z,-2.08
2023-04-04T03:57:28.905Z,-2.11
2023-04-04T03:59:56.504Z,-2.10
2023-04-04T04:02:23.622Z,-2.11
2023-04-04T04:04:51.515Z,-2.11
2023-04-04T04:07:18.671Z,-2.19
2023-04-04T04:09:46.991Z,-2.15
2023-04-04T04:12:16.147Z,-2.12
2023-04-04T04:14:43.689Z,-2.09
2023-04-04T04:17:12.115Z,-2.03
2023-04-04T04:19:39.659Z,-2.04
2023-04-04T04:22:07.028Z,-2.07
2023-04-04T04:24:34.453Z,-1.93
2023-04-04T04:27:01.917Z,-1.92
2023-04-04T04:29:30.139Z,-1.87
2023-04-04T04:31:58.493Z,-1.76
2023-04-04T04:34:33.067Z,-1.76
2023-04-04T04:37:01.513Z,-1.70
2023-04-04T04:39:30.024Z,-1.70
2023-04-04T04:41:57.703Z,-1.66
2023-04-04T04:44:31.190Z,-1.58
2023-04-04T04:46:58.563Z,-1.52
2023-04-04T04:49:27.750Z,-1.51
2023-04-04T04:51:54.947Z,-1.49
2023-04-04T04:54:28.354Z,-1.45
2023-04-04T04:56:55.698Z,-1.36
2023-04-04T04:59:23.101Z,-1.34
2023-04-04T05:01:50.346Z,-1.30
2023-04-04T05:04:17.922Z,-1.29
2023-04-04T05:06:45.448Z,-1.24
2023-04-04T05:09:12.875Z,-1.21
2023-04-04T05:11:40.389Z,-1.12
2023-04-04T05:14:07.858Z,-1.13
2023-04-04T05:16:36.308Z,-1.09
2023-04-04T05:19:04.827Z,-1.09
2023-04-04T05:21:32.163Z,-0.97
2023-04-04T05:24:00.271Z,-0.91
2023-04-04T05:26:29.933Z,-0.86
2023-04-04T05:28:59.525Z,-0.88
2023-04-04T05:31:26.880Z,-0.85
2023-04-04T05:33:54.241Z,-0.90
2023-04-04T05:36:21.732Z,-0.78
2023-04-04T05:38:50.262Z,-0.83
2023-04-04T05:41:19.598Z,-0.76
2023-04-04T05:43:47.103Z,-0.70
2023-04-04T05:46:14.651Z,-0.80
2023-04-04T05:48:42.021Z,-0.76
2023-04-04T05:51:11.163Z,-0.65
2023-04-04T05:53:39.021Z,-0.59
2023-04-04T05:56:25.387Z,-0.58
2023-04-04T05:58:53.485Z,-0.52
2023-04-04T06:01:20.912Z,-0.57
2023-04-04T06:03:48.434Z,-0.42
2023-04-04T06:06:16.192Z,-0.37
2023-04-04T06:11:17.817Z,-0.33
2023-04-04T06:13:45.191Z,-0.24
2023-04-04T06:16:12.870Z,-0.21
2023-04-04T06:18:40.246Z,-0.08
2023-04-04T06:21:07.695Z,-0.02
2023-04-04T06:23:37.992Z,0.05
2023-04-04T06:26:07.029Z,0.03
2023-04-04T06:28:34.469Z,0.03
2023-04-04T06:31:02.286Z,0.04
2023-04-04T06:33:29.480Z,0.05
2023-04-04T06:35:56.992Z,0.20
2023-04-04T06:38:25.110Z,0.20
2023-04-04T06:40:52.426Z,0.41
2023-04-04T06:43:19.996Z,0.46
2023-04-04T06:45:47.434Z,0.40
2023-04-04T06:48:14.841Z,0.40
2023-04-04T06:50:42.320Z,0.30
2023-04-04T06:53:09.867Z,0.56
2023-04-04T06:55:37.322Z,0.58
2023-04-04T06:58:04.620Z,0.53
2023-04-04T07:00:32.136Z,0.33
2023-04-04T07:03:00.600Z,0.30
2023-04-04T07:05:28.419Z,0.38
2023-04-04T07:07:57.296Z,0.33
2023-04-04T07:10:25.847Z,0.49
2023-04-04T07:12:53.023Z,0.49
2023-04-04T07:15:20.497Z,0.50
2023-04-04T07:17:48.051Z,0.45
2023-04-04T07:20:15.477Z,0.43
2023-04-04T07:22:44.850Z,0.36
2023-04-04T07:25:13.633Z,0.33
2023-04-04T07:27:42.853Z,0.42
2023-04-04T07:30:10.864Z,0.35
2023-04-04T07:32:38.478Z,0.57
2023-04-04T07:35:07.320Z,0.66
2023-04-04T07:37:37.479Z,0.69
2023-04-04T07:40:07.984Z,0.69
2023-04-04T07:42:45.694Z,0.65
2023-04-04T07:45:13.633Z,0.80
2023-04-04T07:47:45.547Z,0.80
2023-04-04T07:50:19.267Z,0.86
2023-04-04T07:52:52.514Z,0.96
2023-04-04T07:55:20.629Z,0.97
2023-04-04T07:57:50.177Z,1.07
2023-04-04T08:00:22.212Z,1.26
2023-04-04T08:02:54.198Z,1.19
2023-04-04T08:05:22.088Z,1.18
2023-04-04T08:07:49.344Z,1.26
2023-04-04T08:10:19.467Z,1.37
2023-04-04T08:12:46.622Z,1.32
2023-04-04T08:15:14.281Z,1.40
2023-04-04T08:17:43.516Z,1.30
2023-04-04T08:20:17.252Z,1.40
2023-04-04T08:22:45.785Z,1.51
2023-04-04T08:25:18.835Z,1.72
2023-04-04T08:27:46.830Z,1.71
2023-04-04T08:30:15.805Z,1.78
2023-04-04T08:32:46.142Z,2.01
2023-04-04T08:35:13.605Z,2.02
2023-04-04T08:37:47.598Z,1.98
2023-04-04T08:40:15.245Z,1.90
2023-04-04T08:42:46.413Z,2.02
2023-04-04T08:45:18.818Z,2.02
2023-04-04T08:47:49.602Z,2.06
2023-04-04T08:50:19.565Z,1.89
2023-04-04T08:53:01.920Z,1.99
2023-04-04T08:55:29.263Z,1.96
2023-04-04T08:57:57.373Z,1.99
2023-04-04T09:00:25.548Z,2.07
2023-04-04T09:03:14.100Z,2.06
2023-04-04T09:05:43.781Z,2.20
2023-04-04T09:08:13.174Z,2.30
2023-04-04T09:10:44.425Z,2.24
2023-04-04T09:13:16.035Z,2.26
2023-04-04T09:15:48.535Z,2.46
2023-04-04T09:18:16.671Z,2.59
2023-04-04T09:20:45.175Z,2.71
2023-04-04T09:23:17.891Z,3.02
2023-04-04T09:26:03.098Z,3.02
2023-04-04T09:28:33.005Z,2.94
2023-04-04T09:31:07.772Z,3.18
2023-04-04T09:33:35.259Z,3.28
2023-04-04T09:36:13.192Z,3.32
2023-04-04T09:38:49.656Z,3.05
2023-04-04T09:41:19.168Z,3.13
2023-04-04T09:43:47.780Z,3.08
2023-04-04T09:46:19.785Z,3.11
2023-04-04T09:48:55.851Z,3.26
2023-04-04T09:51:23.438Z,3.39
2023-04-04T09:53:51.744Z,3.47
2023-04-04T09:56:19.673Z,3.34
2023-04-04T09:59:03.056Z,3.26
2023-04-04T10:01:30.884Z,3.25
2023-04-04T10:03:59.556Z,2.99
2023-04-04T10:06:27.483Z,2.69
2023-04-04T10:08:54.737Z,2.77
2023-04-04T10:11:33.857Z,2.82
2023-04-04T10:14:04.230Z,2.91
2023-04-04T10:16:37.377Z,2.96
2023-04-04T10:19:09.030Z,3.17
2023-04-04T10:21:36.978Z,3.17
2023-04-04T10:24:10.300Z,3.02
2023-04-04T10:26:37.974Z,3.00
2023-04-04T10:29:06.255Z,2.92
2023-04-04T10:31:35.420Z,2.78
2023-04-04T10:34:31.529Z,2.83
2023-04-04T10:37:27.416Z,2.95
2023-04-04T10:40:19.894Z,3.03
2023-04-04T10:42:51.292Z,3.17
2023-04-04T10:45:21.472Z,3.47
2023-04-04T10:47:49.730Z,3.77
2023-04-04T10:50:21.229Z,3.86
2023-04-04T10:52:48.958Z,3.71
2023-04-04T10:55:17.479Z,3.55
2023-04-04T10:57:52.996Z,3.51
2023-04-04T11:00:23.731Z,3.43
2023-04-04T11:03:02.379Z,3.28
2023-04-04T11:05:37.798Z,3.33
2023-04-04T11:08:10.866Z,3.32
2023-04-04T11:10:43.497Z,3.39
2023-04-04T11:13:25.247Z,3.39
2023-04-04T11:16:15.774Z,3.28
2023-04-04T11:18:45.847Z,3.27
2023-04-04T11:21:27.703Z,3.33
2023-04-04T11:23:54.915Z,3.22
2023-04-04T11:26:28.577Z,3.25
2023-04-04T11:29:04.459Z,3.41
2023-04-04T11:31:45.754Z,3.60
2023-04-04T11:34:15.036Z,3.76
2023-04-04T11:36:45.484Z,3.68
2023-04-04T11:39:30.632Z,3.71
2023-04-04T11:42:10.668Z,3.80
2023-04-04T11:44:43.290Z,3.89
2023-04-04T11:47:13.035Z,3.76
2023-04-04T11:49:43.888Z,3.64
2023-04-04T11:52:13.436Z,3.29
2023-04-04T11:54:42.719Z,3.30
2023-04-04T11:57:18.404Z,3.29
2023-04-04T11:59:48.925Z,3.16
2023-04-04T12:02:32.376Z,3.15
2023-04-04T12:05:00.410Z,3.16
2023-04-04T12:07:32.088Z,3.41
2023-04-04T12:09:59.708Z,3.49
2023-04-04T12:12:29.120Z,3.56
2023-04-04T12:15:10.342Z,3.49
2023-04-04T12:17:43.735Z,3.32
2023-04-04T12:20:11.779Z,3.27
2023-04-04T12:22:40.059Z,3.26
2023-04-04T12:25:08.078Z,3.46
2023-04-04T12:27:36.994Z,3.58
2023-04-04T12:30:08.196Z,3.74
2023-04-04T12:32:36.707Z,3.89
2023-04-04T12:35:06.394Z,3.93
2023-04-04T12:37:34.726Z,3.95
2023-04-04T12:40:02.689Z,3.78
2023-04-04T12:42:32.395Z,3.71
2023-04-04T12:45:04.497Z,3.65
2023-04-04T12:47:32.479Z,3.54
2023-04-04T12:50:00.183Z,3.55
2023-04-04T12:52:33.040Z,3.65
2023-04-04T12:55:09.941Z,3.84
2023-04-04T12:57:40.300Z,4.25
2023-04-04T13:00:09.624Z,4.50
2023-04-04T13:02:38.240Z,4.57
2023-04-04T13:05:07.950Z,4.56
2023-04-04T13:07:47.628Z,4.61
2023-04-04T13:10:17.083Z,4.71
2023-04-04T13:12:58.997Z,4.72
2023-04-04T13:15:52.313Z,4.76
2023-04-04T13:18:23.950Z,4.62
2023-04-04T13:20:53.182Z,4.53
2023-04-04T13:23:23.532Z,4.48
2023-04-04T13:25:51.616Z,4.48
2023-04-04T13:28:19.216Z,4.44
2023-04-04T13:30:49.805Z,4.24
2023-04-04T13:33:18.624Z,4.23
2023-04-04T13:35:47.186Z,4.15
2023-04-04T13:38:17.204Z,4.08
2023-04-04T13:40:46.642Z,4.10
2023-04-04T13:43:15.527Z,4.09
2023-04-04T13:45:43.809Z,4.07
2023-04-04T13:48:11.779Z,4.23
2023-04-04T13:50:41.860Z,4.23
2023-04-04T13:53:10.799Z,4.16
2023-04-04T13:55:40.198Z,4.02
2023-04-04T13:58:11.772Z,3.96
2023-04-04T14:00:41.140Z,3.94
2023-04-04T14:03:08.696Z,3.92
2023-04-04T14:05:35.976Z,3.72
2023-04-04T14:08:03.502Z,3.62
2023-04-04T14:10:31.915Z,3.56
2023-04-04T14:13:00.818Z,3.57
2023-04-04T14:15:29.270Z,3.70
2023-04-04T14:17:56.583Z,3.76
2023-04-04T14:20:23.932Z,3.86
2023-04-04T14:22:57.943Z,4.20
2023-04-04T14:25:25.388Z,4.50
2023-04-04T14:27:52.825Z,4.88
2023-04-04T14:30:20.302Z,4.90
2023-04-04T14:32:51.393Z,4.79
2023-04-04T14:35:18.939Z,4.53
2023-04-04T14:37:49.463Z,4.17
2023-04-04T14:40:16.956Z,4.26
2023-04-04T14:42:50.875Z,4.66
2023-04-04T14:45:18.621Z,4.72
2023-04-04T14:47:46.269Z,4.45
2023-04-04T14:50:15.884Z,4.57
2023-04-04T14:52:43.298Z,4.79
2023-04-04T14:55:19.127Z,5.16
2023-04-04T15:00:21.309Z,5.02
2023-04-04T15:02:48.427Z,5.27
2023-04-04T15:05:17.389Z,5.26
2023-04-04T15:07:46.535Z,5.53
2023-04-04T15:10:14.434Z,5.53
2023-04-04T15:12:42.580Z,5.57
2023-04-04T15:15:13.586Z,5.43
2023-04-04T15:17:42.010Z,5.65
2023-04-04T15:20:11.258Z,5.96
2023-04-04T15:22:41.648Z,6.53
2023-04-04T15:25:09.979Z,6.21
2023-04-04T15:27:37.569Z,6.04
2023-04-04T15:30:08.477Z,6.65
2023-04-04T15:32:36.059Z,6.86
2023-04-04T15:35:04.738Z,6.60
2023-04-04T15:37:32.373Z,6.07
2023-04-04T15:39:59.787Z,5.48
2023-04-04T15:42:28.806Z,5.22
2023-04-04T15:44:56.258Z,5.00
2023-04-04T15:47:23.689Z,4.73
2023-04-04T15:49:51.322Z,4.67
2023-04-04T15:52:24.684Z,4.41
2023-04-04T15:54:52.674Z,4.23
2023-04-04T15:57:21.240Z,4.07
2023-04-04T15:59:49.109Z,4.27
2023-04-04T16:02:16.708Z,4.47
2023-04-04T16:04:44.102Z,4.44
2023-04-04T16:07:11.607Z,4.36
2023-04-04T16:09:41.286Z,4.21
2023-04-04T16:12:09.027Z,4.05
2023-04-04T16:14:37.568Z,3.95
2023-04-04T16:17:06.000Z,3.87
2023-04-04T16:19:34.369Z,3.90
2023-04-04T16:22:02.018Z,3.93
2023-04-04T16:24:29.365Z,3.86
2023-04-04T16:26:57.265Z,3.73
2023-04-04T16:29:24.859Z,3.66
2023-04-04T16:31:53.741Z,3.63
2023-04-04T16:34:21.260Z,3.57
2023-04-04T16:36:49.705Z,3.42
2023-04-04T16:39:17.356Z,3.41
2023-04-04T16:41:45.684Z,3.33
2023-04-04T16:44:13.576Z,3.50
2023-04-04T16:46:41.276Z,3.45
2023-04-04T16:49:14.910Z,3.28
2023-04-04T16:51:48.308Z,3.07
2023-04-04T16:54:15.878Z,2.95
2023-04-04T16:56:45.274Z,2.88
2023-04-04T16:59:16.148Z,2.84
2023-04-04T17:01:44.325Z,2.75
2023-04-04T17:04:12.154Z,2.75
2023-04-04T17:06:39.642Z,2.66
2023-04-04T17:09:08.623Z,2.65
2023-04-04T17:11:36.272Z,2.64
2023-04-04T17:14:04.562Z,2.48
2023-04-04T17:16:32.115Z,2.34
2023-04-04T17:18:59.488Z,2.34
2023-04-04T17:21:29.246Z,2.22
2023-04-04T17:23:56.608Z,2.18
2023-04-04T17:26:23.908Z,2.10
2023-04-04T17:28:51.630Z,2.06
2023-04-04T17:31:19.891Z,1.98
2023-04-04T17:33:47.416Z,1.88
2023-04-04T17:36:16.049Z,1.87
2023-04-04T17:38:43.818Z,1.80
2023-04-04T17:41:11.861Z,1.69
2023-04-04T17:43:39.662Z,1.65
2023-04-04T17:46:07.963Z,1.64
2023-04-04T17:48:37.351Z,1.59
2023-04-04T17:51:13.567Z,1.49
2023-04-04T17:53:42.713Z,1.38
2023-04-04T17:56:11.954Z,1.40
2023-04-04T17:58:41.098Z,1.33
2023-04-04T18:01:09.456Z,1.18
2023-04-04T18:03:39.257Z,1.03
2023-04-04T18:06:09.055Z,0.94
2023-04-04T18:08:36.719Z,0.88
2023-04-04T18:11:04.420Z,0.67
2023-04-04T18:13:32.836Z,0.51
2023-04-04T18:16:03.154Z,0.26
2023-04-04T18:18:31.104Z,0.22
2023-04-04T18:20:59.863Z,0.33
2023-04-04T18:23:28.550Z,0.34
2023-04-04T18:25:57.072Z,-0.01
2023-04-04T18:28:25.223Z,-0.03
2023-04-04T18:30:54.891Z,-0.16
2023-04-04T18:33:22.548Z,-0.43
2023-04-04T18:35:51.675Z,-0.54
2023-04-04T18:38:25.588Z,-0.70
2023-04-04T18:40:53.187Z,-0.77
2023-04-04T18:43:20.855Z,-0.87
2023-04-04T18:45:49.464Z,-0.83
2023-04-04T18:48:18.123Z,-0.75
2023-04-04T18:50:46.292Z,-0.38
2023-04-04T18:53:19.772Z,-0.58
2023-04-04T18:55:49.953Z,-0.55
2023-04-04T18:58:18.255Z,-0.63
2023-04-04T19:00:46.737Z,-0.92
2023-04-04T19:03:15.833Z,-1.20
2023-04-04T19:05:49.244Z,-1.31
2023-04-04T19:08:18.722Z,-1.21
2023-04-04T19:10:50.485Z,-1.19
2023-04-04T19:13:20.276Z,-1.43
2023-04-04T19:15:47.853Z,-1.94
2023-04-04T19:18:16.002Z,-1.82
2023-04-04T19:20:50.290Z,-2.06
2023-04-04T19:23:19.291Z,-2.15
2023-04-04T19:25:47.399Z,-2.06
2023-04-04T19:28:19.023Z,-1.92
2023-04-04T19:30:50.696Z,-1.78
2023-04-04T19:33:24.438Z,-1.95
2023-04-04T19:35:59.339Z,-2.21
2023-04-04T19:38:36.030Z,-2.18
2023-04-04T19:41:09.891Z,-2.48
2023-04-04T19:43:39.135Z,-2.61
2023-04-04T19:46:11.196Z,-2.28
2023-04-04T19:48:51.548Z,-2.23
2023-04-04T19:51:18.624Z,-2.32
2023-04-04T19:53:48.786Z,-2.36
2023-04-04T19:56:20.104Z,-2.41
2023-04-04T19:58:50.433Z,-2.49
2023-04-04T20:01:23.321Z,-2.45
2023-04-04T20:03:51.240Z,-2.60
2023-04-04T20:06:35.052Z,-2.73
2023-04-04T20:09:23.636Z,-2.64
2023-04-04T20:11:52.611Z,-2.42
2023-04-04T20:14:22.482Z,-2.58
2023-04-04T20:16:52.550Z,-2.45
2023-04-04T20:19:21.240Z,-2.62
2023-04-04T20:21:50.816Z,-2.99
2023-04-04T20:24:18.838Z,-3.11
2023-04-04T20:26:51.911Z,-2.98
2023-04-04T20:29:23.276Z,-3.03
2023-04-04T20:31:55.558Z,-2.79
2023-04-04T20:34:42.473Z,-2.82
2023-04-04T20:37:16.372Z,-2.78
2023-04-04T20:39:48.280Z,-2.64
2023-04-04T20:42:51.038Z,-2.51
2023-04-04T20:45:28.403Z,-2.69
2023-04-04T20:48:00.828Z,-3.04
2023-04-04T20:50:28.416Z,-3.02
2023-04-04T20:53:02.433Z,-3.11
2023-04-04T20:55:35.085Z,-2.92
2023-04-04T20:58:20.225Z,-3.00
2023-04-04T21:00:48.572Z,-2.85
2023-04-04T21:03:37.951Z,-2.77
2023-04-04T21:06:15.922Z,-2.92
2023-04-04T21:08:50.189Z,-2.84
2023-04-04T21:11:29.218Z,-2.95
2023-04-04T21:13:57.675Z,-2.90
2023-04-04T21:16:27.540Z,-2.99
2023-04-04T21:19:01.056Z,-3.05
2023-04-04T21:21:29.661Z,-3.02
2023-04-04T21:24:00.214Z,-3.01
2023-04-04T21:26:33.958Z,-2.88
2023-04-04T21:29:21.708Z,-3.18
2023-04-04T21:31:52.850Z,-3.52
2023-04-04T21:34:26.282Z,-3.52
2023-04-04T21:37:00.111Z,-3.21
2023-04-04T21:39:29.998Z,-3.35
2023-04-04T21:42:04.668Z,-3.31
2023-04-04T21:44:35.563Z,-3.37
2023-04-04T21:47:03.028Z,-3.46
2023-04-04T21:49:31.803Z,-3.59
2023-04-04T21:51:58.981Z,-3.65
2023-04-04T21:54:26.475Z,-3.83
2023-04-04T21:56:53.855Z,-3.80
2023-04-04T21:59:21.399Z,-3.70
2023-04-04T22:01:48.762Z,-3.91
2023-04-04T22:04:16.417Z,-3.69
2023-04-04T22:06:45.014Z,-3.69
2023-04-04T22:09:12.206Z,-3.56
2023-04-04T22:11:44.673Z,-3.51
2023-04-04T22:14:17.840Z,-3.56
2023-04-04T22:16:46.479Z,-3.75
2023-04-04T22:19:13.623Z,-3.82
2023-04-04T22:21:48.384Z,-3.78
2023-04-04T22:24:18.743Z,-3.84
2023-04-04T22:26:46.506Z,-4.14
2023-04-04T22:29:13.974Z,-3.71
2023-04-04T22:31:41.290Z,-3.69
2023-04-04T22:34:10.476Z,-3.72
2023-04-04T22:36:44.862Z,-3.86
2023-04-04T22:39:16.429Z,-3.81
2023-04-04T22:41:44.316Z,-3.85
2023-04-04T22:44:11.988Z,-3.97
2023-04-04T22:46:44.989Z,-3.87
2023-04-04T22:49:13.689Z,-3.82
2023-04-04T22:51:46.138Z,-4.17
2023-04-04T22:54:17.012Z,-4.10
2023-04-04T22:56:45.849Z,-4.12
2023-04-04T22:59:13.174Z,-4.26
2023-04-04T23:01:40.606Z,-4.40
2023-04-04T23:04:08.329Z,-4.42
2023-04-04T23:06:36.395Z,-4.41
2023-04-04T23:09:04.401Z,-3.98
2023-04-04T23:11:31.968Z,-3.99
2023-04-04T23:14:00.866Z,-4.01
2023-04-04T23:16:29.426Z,-4.07
2023-04-04T23:18:57.297Z,-4.13
2023-04-04T23:21:26.873Z,-4.19
2023-04-04T23:23:59.968Z,-4.08
2023-04-04T23:26:28.319Z,-3.89
2023-04-04T23:28:57.278Z,-4.10
2023-04-04T23:31:26.165Z,-3.97
2023-04-04T23:33:55.640Z,-3.87
2023-04-04T23:36:22.998Z,-3.81
2023-04-04T23:38:50.302Z,-3.73
2023-04-04T23:41:18.504Z,-3.63
2023-04-04T23:43:56.009Z,-3.63
2023-04-04T23:46:24.236Z,-3.64
2023-04-04T23:48:51.914Z,-3.57
2023-04-04T23:51:19.573Z,-3.56
2023-04-04T23:53:46.847Z,-3.66
2023-04-04T23:56:14.437Z,-3.83
2023-04-04T23:58:41.661Z,-3.77
